createdAt,value
2018-05-26T00:01:40.549Z,84.76
2018-05-26T00:04:08.057Z,84.79
2018-05-26T00:06:35.604Z,84.96
2018-05-26T00:09:03.126Z,84.75
2018-05-26T00:11:30.645Z,84.34
2018-05-26T00:13:58.164Z,84.02
2018-05-26T00:16:25.674Z,84.03
2018-05-26T00:18:53.190Z,84.07
2018-05-26T00:21:20.698Z,83.85
2018-05-26T00:23:48.212Z,83.84
2018-05-26T00:26:15.728Z,83.57
2018-05-26T00:28:43.243Z,83.08
2018-05-26T00:31:10.786Z,82.95
2018-05-26T00:33:38.302Z,83.12
2018-05-26T00:36:05.812Z,83.00
2018-05-26T00:38:33.354Z,82.92
2018-05-26T00:41:00.865Z,83.16
2018-05-26T00:43:28.379Z,83.40
2018-05-26T00:45:55.882Z,83.67
2018-05-26T00:48:23.397Z,83.96
2018-05-26T00:50:50.910Z,84.20
2018-05-26T00:53:18.421Z,84.41
2018-05-26T00:55:45.971Z,84.70
2018-05-26T00:58:13.481Z,84.67
2018-05-26T01:00:40.994Z,85.10
2018-05-26T01:03:08.508Z,85.30
2018-05-26T01:05:36.035Z,85.50
2018-05-26T01:08:03.547Z,85.71
2018-05-26T01:10:31.096Z,85.98
2018-05-26T01:12:58.656Z,86.40
2018-05-26T01:15:26.178Z,86.84
2018-05-26T01:17:53.823Z,87.06
2018-05-26T01:20:22.320Z,87.10
2018-05-26T01:22:49.827Z,87.51
2018-05-26T01:25:17.343Z,88.23
2018-05-26T01:27:44.859Z,88.87
2018-05-26T01:30:12.407Z,89.27
2018-05-26T01:32:39.907Z,89.39
2018-05-26T01:35:07.495Z,89.33
2018-05-26T01:37:35.015Z,89.47
2018-05-26T01:40:02.563Z,89.47
2018-05-26T01:42:30.060Z,89.60
2018-05-26T01:44:57.571Z,89.82
2018-05-26T01:47:25.071Z,89.94
2018-05-26T01:49:52.574Z,90.03
2018-05-26T01:52:20.088Z,89.91
2018-05-26T01:54:47.600Z,90.04
2018-05-26T01:57:15.102Z,90.18
2018-05-26T01:59:42.607Z,90.13
2018-05-26T02:02:10.128Z,90.18
2018-05-26T02:04:37.655Z,90.11
2018-05-26T02:07:05.189Z,89.87
2018-05-26T02:09:32.702Z,89.63
2018-05-26T02:12:00.272Z,89.63
2018-05-26T02:14:27.786Z,89.91
2018-05-26T02:16:55.286Z,89.74
2018-05-26T02:19:22.827Z,89.71
2018-05-26T02:21:50.954Z,89.69
2018-05-26T02:24:18.466Z,89.60
2018-05-26T02:26:45.978Z,89.59
2018-05-26T02:29:13.503Z,89.53
2018-05-26T02:31:41.024Z,89.49
2018-05-26T02:34:08.592Z,89.52
2018-05-26T02:36:36.119Z,89.55
2018-05-26T02:39:03.653Z,89.64
2018-05-26T02:41:31.182Z,89.78
2018-05-26T02:43:58.701Z,89.95
2018-05-26T02:46:26.233Z,90.18
2018-05-26T02:48:53.750Z,90.27
2018-05-26T02:51:21.267Z,90.40
2018-05-26T02:53:48.819Z,90.53
2018-05-26T02:56:16.345Z,90.74
2018-05-26T02:58:43.865Z,90.27
2018-05-26T03:01:11.382Z,90.29
2018-05-26T03:03:38.902Z,90.44
2018-05-26T03:06:12.027Z,90.45
2018-05-26T03:08:45.138Z,90.36
2018-05-26T03:11:18.197Z,90.16
2018-05-26T03:13:51.287Z,89.53
2018-05-26T03:19:25.528Z,88.66
2018-05-26T03:21:53.018Z,87.77
2018-05-26T03:24:20.549Z,86.94
2018-05-26T03:26:48.072Z,86.59
2018-05-26T03:29:15.584Z,86.45
2018-05-26T03:31:43.100Z,86.19
2018-05-26T03:34:10.615Z,86.15
2018-05-26T03:36:38.131Z,86.35
2018-05-26T03:39:05.716Z,86.04
2018-05-26T03:41:33.243Z,85.92
2018-05-26T03:44:00.759Z,85.44
2018-05-26T03:46:28.287Z,85.13
2018-05-26T03:48:55.804Z,85.20
2018-05-26T03:51:23.316Z,85.46
2018-05-26T03:53:50.834Z,85.42
2018-05-26T03:59:31.899Z,85.14
2018-05-26T04:01:59.416Z,84.91
2018-05-26T04:04:26.941Z,85.02
2018-05-26T04:06:54.454Z,85.31
2018-05-26T04:09:21.994Z,85.69
2018-05-26T04:11:49.511Z,85.40
2018-05-26T04:14:17.018Z,85.31
2018-05-26T04:16:44.524Z,84.74
2018-05-26T04:19:12.037Z,84.45
2018-05-26T04:21:39.567Z,84.19
2018-05-26T04:24:07.083Z,83.75
2018-05-26T04:26:34.595Z,84.08
2018-05-26T04:29:02.112Z,82.76
2018-05-26T04:31:29.625Z,80.98
2018-05-26T04:33:57.147Z,79.65
2018-05-26T04:36:24.659Z,77.99
2018-05-26T04:38:52.172Z,75.92
2018-05-26T04:41:19.687Z,74.95
2018-05-26T04:43:47.208Z,74.07
2018-05-26T04:46:14.759Z,75.05
2018-05-26T04:48:42.276Z,75.60
2018-05-26T04:51:10.805Z,75.17
2018-05-26T04:53:38.316Z,74.87
2018-05-26T04:56:05.843Z,74.44
2018-05-26T04:58:33.387Z,74.73
2018-05-26T05:01:00.915Z,73.08
2018-05-26T05:03:28.439Z,72.18
2018-05-26T05:05:55.938Z,71.24
2018-05-26T05:08:23.452Z,70.16
2018-05-26T05:10:50.985Z,68.86
2018-05-26T05:13:18.553Z,67.69
2018-05-26T05:15:46.069Z,66.36
2018-05-26T05:18:13.606Z,65.48
2018-05-26T05:20:41.121Z,64.13
2018-05-26T05:23:08.856Z,62.80
2018-05-26T05:25:36.363Z,62.33
2018-05-26T05:28:03.884Z,61.57
2018-05-26T05:30:32.151Z,60.63
2018-05-26T05:32:59.659Z,58.17
2018-05-26T05:35:27.175Z,56.85
2018-05-26T05:37:54.704Z,55.79
2018-05-26T05:40:22.290Z,57.17
2018-05-26T05:42:49.836Z,57.15
2018-05-26T05:45:17.356Z,56.85
2018-05-26T05:47:44.901Z,56.19
2018-05-26T05:50:12.442Z,57.79
2018-05-26T05:52:39.954Z,55.34
2018-05-26T05:55:07.755Z,55.17
2018-05-26T05:57:35.284Z,54.76
2018-05-26T06:00:02.851Z,53.21
2018-05-26T06:02:30.415Z,52.77
2018-05-26T06:04:57.932Z,51.79
2018-05-26T06:07:25.483Z,51.89
2018-05-26T06:09:52.992Z,50.51
2018-05-26T06:12:20.559Z,50.58
2018-05-26T06:14:48.340Z,50.17
2018-05-26T06:17:15.955Z,49.93
2018-05-26T06:19:43.482Z,48.59
2018-05-26T06:22:11.002Z,47.09
2018-05-26T06:24:38.832Z,47.50
2018-05-26T06:27:06.338Z,46.53
2018-05-26T06:29:33.894Z,44.60
2018-05-26T06:32:01.418Z,44.39
2018-05-26T06:34:29.290Z,44.39
2018-05-26T06:36:56.832Z,44.72
2018-05-26T06:39:24.335Z,42.81
2018-05-26T06:41:51.844Z,42.61
2018-05-26T06:44:19.361Z,43.40
2018-05-26T06:46:47.176Z,43.06
2018-05-26T06:49:14.675Z,43.90
2018-05-26T06:51:42.453Z,42.69
2018-05-26T06:54:10.007Z,42.57
2018-05-26T06:56:37.526Z,42.79
2018-05-26T06:59:05.130Z,41.45
2018-05-26T07:01:32.646Z,40.20
2018-05-26T07:04:00.195Z,39.78
2018-05-26T07:06:27.728Z,39.19
2018-05-26T07:08:55.303Z,38.97
2018-05-26T07:11:22.837Z,40.17
2018-05-26T07:13:50.650Z,40.22
2018-05-26T07:16:18.163Z,41.68
2018-05-26T07:18:45.696Z,41.89
2018-05-26T07:21:14.455Z,41.21
2018-05-26T07:23:41.989Z,39.02
2018-05-26T07:26:09.540Z,39.43
2018-05-26T07:28:37.306Z,39.61
2018-05-26T07:31:04.822Z,37.97
2018-05-26T07:33:32.388Z,39.00
2018-05-26T07:35:59.911Z,38.08
2018-05-26T07:38:27.426Z,38.80
2018-05-26T07:40:55.298Z,38.42
2018-05-26T07:43:22.814Z,37.83
2018-05-26T07:45:51.146Z,36.63
2018-05-26T07:48:18.706Z,36.82
2018-05-26T07:50:46.241Z,38.26
2018-05-26T07:53:13.755Z,38.25
2018-05-26T07:55:41.286Z,38.33
2018-05-26T07:58:08.861Z,36.62
2018-05-26T08:00:36.427Z,36.53
2018-05-26T08:03:03.967Z,36.50
2018-05-26T08:05:31.472Z,36.24
2018-05-26T08:07:59.009Z,38.10
2018-05-26T08:10:26.550Z,37.63
2018-05-26T08:12:54.199Z,37.75
2018-05-26T08:15:21.709Z,36.52
2018-05-26T08:17:49.232Z,35.19
2018-05-26T08:20:16.749Z,35.25
2018-05-26T08:22:44.264Z,34.77
2018-05-26T08:25:11.768Z,36.66
2018-05-26T08:27:39.283Z,36.83
2018-05-26T08:30:06.920Z,37.40
2018-05-26T08:32:34.432Z,36.40
2018-05-26T08:35:01.977Z,37.42
2018-05-26T08:37:29.537Z,37.20
2018-05-26T08:39:57.155Z,36.84
2018-05-26T08:42:24.673Z,38.81
2018-05-26T08:44:52.927Z,39.09
2018-05-26T08:50:02.489Z,37.03
2018-05-26T08:52:30.011Z,37.17
2018-05-26T08:54:58.315Z,35.98
2018-05-26T08:57:26.049Z,34.59
2018-05-26T08:59:53.827Z,36.80
2018-05-26T09:02:21.389Z,36.20
2018-05-26T09:04:49.242Z,36.29
2018-05-26T09:07:16.813Z,35.40
2018-05-26T09:09:44.347Z,34.92
2018-05-26T09:12:11.877Z,35.04
2018-05-26T09:14:39.616Z,35.49
2018-05-26T09:17:07.239Z,35.24
2018-05-26T09:19:34.818Z,34.76
2018-05-26T09:22:02.388Z,34.50
2018-05-26T09:24:29.893Z,33.97
2018-05-26T09:26:57.426Z,32.06
2018-05-26T09:29:24.947Z,33.36
2018-05-26T09:31:52.470Z,35.52
2018-05-26T09:34:20.366Z,34.60
2018-05-26T09:36:47.889Z,35.31
2018-05-26T09:39:15.405Z,36.14
2018-05-26T09:41:42.931Z,34.16
2018-05-26T09:44:10.453Z,35.23
2018-05-26T09:46:37.992Z,33.73
2018-05-26T09:49:05.514Z,32.63
2018-05-26T09:51:33.057Z,33.74
2018-05-26T09:54:00.617Z,34.32
2018-05-26T09:56:28.177Z,35.08
2018-05-26T09:58:55.705Z,34.83
2018-05-26T10:01:23.296Z,34.21
2018-05-26T10:03:51.080Z,34.20
2018-05-26T10:06:18.630Z,34.57
2018-05-26T10:08:46.183Z,34.59
2018-05-26T10:11:13.947Z,33.65
2018-05-26T10:13:41.731Z,32.33
2018-05-26T10:16:09.239Z,32.28
2018-05-26T10:18:36.830Z,31.86
2018-05-26T10:21:04.649Z,31.65
2018-05-26T10:23:32.160Z,32.51
2018-05-26T10:25:59.705Z,32.49
2018-05-26T10:28:27.228Z,31.35
2018-05-26T10:30:55.119Z,31.51
2018-05-26T10:33:22.643Z,31.28
2018-05-26T10:35:50.138Z,30.33
2018-05-26T10:38:17.674Z,30.38
2018-05-26T10:40:45.195Z,30.79
2018-05-26T10:43:12.691Z,31.27
2018-05-26T10:45:40.219Z,31.90
2018-05-26T10:48:07.723Z,31.69
2018-05-26T10:50:35.565Z,31.64
2018-05-26T10:53:03.075Z,32.47
2018-05-26T10:55:30.614Z,31.85
2018-05-26T10:57:58.160Z,31.85
2018-05-26T11:00:25.919Z,31.53
2018-05-26T11:02:53.720Z,32.03
2018-05-26T11:05:21.512Z,31.78
2018-05-26T11:07:49.044Z,31.77
2018-05-26T11:10:16.555Z,31.84
2018-05-26T11:12:44.080Z,31.02
2018-05-26T11:15:11.853Z,30.42
2018-05-26T11:17:39.675Z,31.08
2018-05-26T11:20:07.204Z,30.31
2018-05-26T11:22:34.720Z,31.92
2018-05-26T11:25:02.235Z,31.21
2018-05-26T11:27:29.841Z,30.58
2018-05-26T11:29:57.348Z,30.29
2018-05-26T11:32:24.857Z,29.99
2018-05-26T11:34:52.673Z,30.39
2018-05-26T11:37:20.525Z,29.21
2018-05-26T11:39:48.063Z,31.03
2018-05-26T11:42:15.590Z,30.57
2018-05-26T11:44:43.141Z,30.06
2018-05-26T11:47:10.653Z,30.35
2018-05-26T11:49:38.189Z,32.38
2018-05-26T11:52:05.779Z,33.24
2018-05-26T11:54:33.300Z,33.45
2018-05-26T11:57:00.822Z,32.91
2018-05-26T11:59:28.405Z,31.89
2018-05-26T12:01:55.951Z,31.27
2018-05-26T12:04:23.527Z,34.62
2018-05-26T12:06:51.042Z,36.36
2018-05-26T12:09:18.679Z,35.30
2018-05-26T12:11:46.191Z,36.75
2018-05-26T12:14:13.703Z,35.38
2018-05-26T12:16:41.208Z,34.71
2018-05-26T12:19:08.750Z,33.67
2018-05-26T12:21:36.256Z,33.99
2018-05-26T12:24:03.810Z,34.01
2018-05-26T12:26:31.351Z,34.57
2018-05-26T12:28:58.907Z,35.63
2018-05-26T12:31:26.464Z,37.33
2018-05-26T12:33:54.304Z,38.20
2018-05-26T12:36:21.837Z,39.33
2018-05-26T12:38:49.345Z,39.61
2018-05-26T12:41:16.928Z,39.04
2018-05-26T12:43:44.442Z,38.40
2018-05-26T12:46:12.121Z,38.73
2018-05-26T12:48:39.750Z,37.67
2018-05-26T12:51:08.078Z,37.46
2018-05-26T12:53:35.582Z,36.63
2018-05-26T12:56:03.090Z,36.76
2018-05-26T12:58:30.664Z,36.51
2018-05-26T13:00:58.223Z,36.40
2018-05-26T13:03:25.771Z,36.36
2018-05-26T13:05:53.291Z,36.67
2018-05-26T13:08:20.804Z,36.99
2018-05-26T13:10:48.591Z,37.29
2018-05-26T13:13:16.162Z,36.85
2018-05-26T13:15:43.666Z,36.14
2018-05-26T13:18:11.509Z,34.62
2018-05-26T13:20:39.027Z,36.22
2018-05-26T13:23:06.526Z,37.26
2018-05-26T13:25:34.027Z,38.02
2018-05-26T13:28:01.536Z,39.41
2018-05-26T13:30:30.016Z,40.97
2018-05-26T13:32:57.513Z,39.28
2018-05-26T13:35:25.016Z,32.84
2018-05-26T13:37:52.531Z,33.96
2018-05-26T13:40:20.034Z,36.37
2018-05-26T13:42:47.548Z,37.59
2018-05-26T13:45:15.052Z,39.12
2018-05-26T13:47:42.563Z,39.91
2018-05-26T13:50:10.391Z,40.24
2018-05-26T13:52:37.938Z,40.40
2018-05-26T13:55:05.808Z,40.65
2018-05-26T13:57:33.659Z,40.76
2018-05-26T14:00:01.939Z,39.91
2018-05-26T14:02:29.732Z,38.78
2018-05-26T14:04:57.595Z,39.12
2018-05-26T14:07:25.365Z,39.52
2018-05-26T14:09:52.875Z,39.51
2018-05-26T14:12:20.400Z,39.60
2018-05-26T14:14:47.894Z,40.35
2018-05-26T14:17:15.450Z,40.99
2018-05-26T14:19:42.923Z,40.38
2018-05-26T14:22:10.448Z,39.99
2018-05-26T14:24:37.996Z,38.53
2018-05-26T14:27:05.605Z,38.91
2018-05-26T14:29:33.114Z,39.37
2018-05-26T14:32:00.628Z,39.15
2018-05-26T14:34:28.139Z,39.99
2018-05-26T14:36:55.747Z,39.88
2018-05-26T14:39:23.301Z,39.32
2018-05-26T14:41:50.809Z,39.07
2018-05-26T14:44:18.349Z,39.48
2018-05-26T14:46:45.859Z,39.81
2018-05-26T14:49:13.383Z,40.11
2018-05-26T14:51:40.903Z,40.17
2018-05-26T14:54:08.417Z,40.09
2018-05-26T14:56:36.251Z,40.20
2018-05-26T14:59:03.777Z,41.02
2018-05-26T15:01:31.289Z,40.40
2018-05-26T15:03:58.872Z,40.19
2018-05-26T15:06:26.430Z,40.15
2018-05-26T15:08:53.971Z,39.94
2018-05-26T15:11:21.483Z,40.57
2018-05-26T15:13:48.997Z,41.00
2018-05-26T15:16:16.508Z,41.24
2018-05-26T15:18:44.065Z,40.94
2018-05-26T15:21:11.574Z,40.25
2018-05-26T15:23:39.110Z,40.04
2018-05-26T15:26:06.672Z,40.39
2018-05-26T15:28:34.227Z,40.78
2018-05-26T15:31:01.772Z,41.13
2018-05-26T15:33:29.280Z,41.00
2018-05-26T15:35:56.789Z,41.19
2018-05-26T15:38:24.307Z,41.46
2018-05-26T15:40:51.831Z,41.65
2018-05-26T15:43:19.404Z,41.68
2018-05-26T15:45:46.953Z,41.70
2018-05-26T15:48:14.802Z,41.42
2018-05-26T15:50:43.349Z,41.23
2018-05-26T15:53:11.250Z,40.47
2018-05-26T15:55:38.767Z,40.28
2018-05-26T15:58:06.292Z,40.30
2018-05-26T16:00:33.859Z,40.30
2018-05-26T16:03:01.403Z,40.33
2018-05-26T16:05:28.947Z,40.63
2018-05-26T16:07:56.468Z,40.46
2018-05-26T16:10:24.011Z,41.11
2018-05-26T16:12:51.519Z,41.38
2018-05-26T16:15:19.079Z,41.35
2018-05-26T16:17:46.594Z,41.23
2018-05-26T16:20:14.141Z,41.38
2018-05-26T16:22:41.655Z,41.55
2018-05-26T16:25:09.185Z,41.79
2018-05-26T16:27:36.739Z,42.35
2018-05-26T16:30:05.201Z,42.52
2018-05-26T16:32:32.737Z,43.04
2018-05-26T16:35:00.255Z,43.17
2018-05-26T16:37:28.650Z,43.82
2018-05-26T16:39:56.428Z,45.41
2018-05-26T16:42:23.994Z,45.63
2018-05-26T16:44:51.492Z,46.82
2018-05-26T16:47:19.051Z,47.12
2018-05-26T16:49:46.569Z,47.20
2018-05-26T16:52:14.147Z,47.51
2018-05-26T16:54:41.666Z,47.40
2018-05-26T16:57:09.173Z,46.52
2018-05-26T16:59:36.691Z,46.89
2018-05-26T17:02:04.207Z,46.89
2018-05-26T17:04:32.024Z,47.32
2018-05-26T17:06:59.531Z,47.54
2018-05-26T17:09:27.088Z,47.72
2018-05-26T17:11:54.574Z,47.74
2018-05-26T17:14:22.100Z,47.89
2018-05-26T17:16:49.621Z,48.05
2018-05-26T17:19:17.136Z,48.39
2018-05-26T17:21:44.643Z,48.62
2018-05-26T17:24:12.536Z,49.03
2018-05-26T17:26:40.039Z,49.38
2018-05-26T17:29:07.540Z,50.00
2018-05-26T17:31:35.084Z,50.11
2018-05-26T17:34:02.600Z,50.50
2018-05-26T17:36:30.118Z,50.76
2018-05-26T17:38:57.956Z,51.26
2018-05-26T17:41:25.718Z,51.58
2018-05-26T17:43:53.261Z,51.79
2018-05-26T17:46:20.846Z,52.11
2018-05-26T17:48:48.347Z,52.33
2018-05-26T17:51:15.858Z,52.75
2018-05-26T17:53:43.363Z,53.04
2018-05-26T17:56:10.869Z,53.24
2018-05-26T17:58:38.416Z,53.55
2018-05-26T18:01:06.197Z,53.74
2018-05-26T18:03:33.880Z,53.93
2018-05-26T18:06:01.393Z,53.98
2018-05-26T18:08:28.920Z,53.88
2018-05-26T18:10:56.443Z,53.89
2018-05-26T18:13:23.960Z,53.96
2018-05-26T18:15:51.464Z,53.82
2018-05-26T18:18:19.006Z,53.74
2018-05-26T18:20:46.528Z,53.85
2018-05-26T18:23:14.087Z,54.08
2018-05-26T18:25:41.705Z,53.95
2018-05-26T18:28:09.222Z,54.15
2018-05-26T18:30:36.796Z,54.29
2018-05-26T18:33:04.350Z,54.28
2018-05-26T18:35:31.897Z,54.42
2018-05-26T18:37:59.414Z,54.66
2018-05-26T18:40:27.007Z,54.80
2018-05-26T18:42:54.527Z,55.28
2018-05-26T18:45:22.288Z,55.86
2018-05-26T18:47:49.835Z,56.51
2018-05-26T18:50:17.346Z,56.85
2018-05-26T18:52:45.084Z,57.14
2018-05-26T18:55:12.592Z,57.58
2018-05-26T18:57:40.116Z,57.92
2018-05-26T19:00:07.722Z,58.22
2018-05-26T19:02:35.252Z,58.70
2018-05-26T19:05:02.749Z,59.07
2018-05-26T19:07:30.250Z,59.44
2018-05-26T19:09:57.751Z,59.97
2018-05-26T19:12:25.252Z,60.43
2018-05-26T19:14:52.795Z,60.68
2018-05-26T19:17:20.305Z,60.92
2018-05-26T19:19:48.131Z,61.13
2018-05-26T19:22:15.883Z,61.13
2018-05-26T19:24:43.423Z,61.12
2018-05-26T19:27:10.948Z,61.25
2018-05-26T19:29:38.502Z,61.63
2018-05-26T19:32:06.012Z,61.92
2018-05-26T19:34:33.536Z,62.37
2018-05-26T19:37:01.066Z,62.28
2018-05-26T19:39:28.582Z,62.09
2018-05-26T19:41:56.424Z,61.83
2018-05-26T19:44:23.956Z,62.00
2018-05-26T19:46:51.554Z,62.06
2018-05-26T19:49:19.089Z,62.16
2018-05-26T19:51:46.597Z,62.22
2018-05-26T19:54:14.451Z,62.36
2018-05-26T19:56:42.232Z,62.46
2018-05-26T19:59:09.825Z,62.74
2018-05-26T20:01:37.340Z,62.76
2018-05-26T20:04:04.858Z,62.57
2018-05-26T20:06:32.363Z,62.49
2018-05-26T20:08:59.886Z,62.87
2018-05-26T20:11:27.423Z,62.81
2018-05-26T20:13:54.922Z,62.52
2018-05-26T20:16:22.433Z,62.58
2018-05-26T20:18:49.935Z,62.20
2018-05-26T20:21:17.514Z,62.22
2018-05-26T20:23:45.058Z,62.39
2018-05-26T20:26:12.667Z,62.69
2018-05-26T20:28:40.166Z,62.88
2018-05-26T20:31:07.680Z,63.42
2018-05-26T20:33:35.188Z,63.68
2018-05-26T20:36:03.008Z,64.10
2018-05-26T20:38:30.520Z,64.30
2018-05-26T20:40:58.061Z,64.38
2018-05-26T20:43:25.562Z,64.34
2018-05-26T20:45:53.099Z,64.43
2018-05-26T20:48:20.668Z,64.51
2018-05-26T20:50:48.163Z,64.59
2018-05-26T20:53:15.679Z,64.64
2018-05-26T20:55:43.176Z,64.77
2018-05-26T20:58:10.676Z,64.87
2018-05-26T21:00:38.297Z,65.00
2018-05-26T21:03:05.965Z,65.20
2018-05-26T21:05:33.478Z,65.36
2018-05-26T21:08:01.049Z,65.16
2018-05-26T21:10:28.553Z,65.65
2018-05-26T21:12:56.099Z,65.77
2018-05-26T21:15:23.656Z,66.00
2018-05-26T21:17:51.181Z,66.10
2018-05-26T21:20:18.878Z,66.52
2018-05-26T21:22:46.373Z,66.69
2018-05-26T21:25:13.881Z,66.87
2018-05-26T21:27:41.399Z,67.15
2018-05-26T21:30:08.945Z,67.60
2018-05-26T21:32:37.410Z,68.07
2018-05-26T21:35:04.919Z,68.43
2018-05-26T21:37:32.429Z,68.41
2018-05-26T21:39:59.951Z,68.40
2018-05-26T21:42:27.471Z,68.67
2018-05-26T21:44:55.012Z,68.52
2018-05-26T21:47:22.562Z,68.09
2018-05-26T21:49:50.082Z,68.34
2018-05-26T21:52:17.600Z,68.51
2018-05-26T21:54:45.122Z,68.66
2018-05-26T21:57:12.636Z,68.51
2018-05-26T21:59:40.154Z,68.47
2018-05-26T22:02:07.686Z,68.67
2018-05-26T22:04:35.196Z,68.85
2018-05-26T22:07:02.695Z,69.19
2018-05-26T22:09:30.228Z,69.24
2018-05-26T22:11:57.735Z,69.15
2018-05-26T22:14:25.353Z,69.14
2018-05-26T22:16:52.812Z,69.16
2018-05-26T22:19:20.307Z,69.11
2018-05-26T22:21:47.811Z,69.17
2018-05-26T22:24:16.061Z,69.65
2018-05-26T22:26:43.566Z,69.64
2018-05-26T22:29:11.080Z,69.50
2018-05-26T22:31:38.591Z,69.56
2018-05-26T22:34:06.107Z,69.50
2018-05-26T22:36:33.611Z,69.45
2018-05-26T22:39:01.127Z,69.39
2018-05-26T22:41:28.637Z,69.81
2018-05-26T22:43:56.137Z,69.83
2018-05-26T22:46:23.658Z,69.97
2018-05-26T22:48:51.164Z,69.77
2018-05-26T22:51:18.664Z,69.61
2018-05-26T22:53:46.180Z,69.64
2018-05-26T22:56:13.687Z,70.02
2018-05-26T22:58:42.107Z,70.46
2018-05-26T23:01:09.619Z,70.54
2018-05-26T23:03:37.127Z,70.83
2018-05-26T23:06:04.635Z,70.68
2018-05-26T23:08:32.142Z,70.35
2018-05-26T23:10:59.656Z,69.53
2018-05-26T23:13:27.160Z,69.22
2018-05-26T23:15:54.676Z,69.34
2018-05-26T23:18:22.196Z,69.38
2018-05-26T23:20:49.708Z,68.97
2018-05-26T23:23:17.221Z,68.84
2018-05-26T23:25:44.731Z,69.28
2018-05-26T23:28:12.238Z,69.18
2018-05-26T23:30:39.749Z,69.05
2018-05-26T23:33:23.713Z,68.87
2018-05-26T23:39:05.847Z,69.26
2018-05-26T23:41:33.403Z,69.59
2018-05-26T23:44:00.896Z,68.64
2018-05-26T23:46:28.427Z,68.74
2018-05-26T23:48:55.940Z,69.34
2018-05-26T23:51:23.452Z,69.26
2018-05-26T23:53:50.954Z,69.45
2018-05-26T23:56:18.455Z,69.15
2018-05-26T23:58:45.994Z,69.03
